• Join FlightAware (Why Join?)
  • Login
  • US Flag 
05:28PM EDT


 

Airport Tracker/Info


-or-


 

Live Flight TrackerFlight Track Log ✈ FLG4222 ✈ 02-Oct-2013 ✈ KDTW - KBGM

Flight Track Log - Related Links

Times and Time Zones

All times are in EDT time to prevent confusion due to time zone crossing. See the FLG4222 flight status page for this flight to view local times or setup timezone preferences in your user account.

Time Position Orientation Groundspeed Altitude Reporting Facility
EDT Latitude Longitude Course Direction KTS MPH feet Rate Location/Type
10:06AM 42.1903 -83.3536 180° South 171 197 1,500  Level Cleveland Center
10:07AM 42.1525 -83.3539 180° South 212 244 3,000 2,040 Climbing Cleveland Center
10:08AM 42.1242 -83.3494 173° South 205 236 4,400 2,400 Climbing Cleveland Center
10:08AM 42.0969 -83.3153 137° Southeast 250 288 5,700 1,980 Climbing Cleveland Center
10:09AM 42.0997 -83.2714 85° East 262 302 6,500 2,400 Climbing Cleveland Center
10:09AM 42.1200 -83.2058 67° East 292 336 8,400 3,000 Climbing Cleveland Center
10:10AM 42.1342 -83.1569 69° East 291 335 9,600 1,800 Climbing Cleveland Center
10:11AM 42.1719 -83.0467 65° Northeast 324 373 11,200 1,620 Climbing Cleveland Center
10:12AM 42.2133 -82.9208 66° East 366 421 13,000 1,620 Climbing Cleveland Center
10:13AM 42.2525 -82.7869 68° East 385 443 14,600 1,620 Climbing Cleveland Center
10:14AM 42.2522 -82.6033 90° East 410 472 16,400 1,560 Climbing Cleveland Center
10:15AM 42.2522 -82.4461 90° East 418 481 17,900 1,380 Climbing Cleveland Center
10:16AM 42.2522 -82.2892 90° East 421 484 19,300 1,140 Climbing Cleveland Center
10:17AM 42.2506 -82.1333 91° East 432 497 20,300 960 Climbing Cleveland Center
10:18AM 42.2489 -81.9644 91° East 442 509 21,300 1,020 Climbing Cleveland Center
10:19AM 42.2478 -81.7644 90° East 450 518 22,500 960 Climbing Cleveland Center
10:20AM 42.2453 -81.5900 91° East 457 526 23,300 780 Climbing Cleveland Center
10:21AM 42.2428 -81.4144 91° East 462 532 24,200 780 Climbing Cleveland Center
10:22AM 42.2406 -81.2367 91° East 467 537 25,000 360 Climbing Cleveland Center
10:23AM 42.2372 -81.0544 91° East 477 549 25,000  Level Cleveland Center
10:24AM 42.2339 -80.8725 91° East 480 552 25,000  Level Cleveland Center
10:25AM 42.2308 -80.6897 91° East 482 555 25,000  Level Cleveland Center
10:26AM 42.2272 -80.5075 91° East 483 556 25,000  Level Cleveland Center
10:27AM 42.2231 -80.2928 91° East 486 559 25,000  Level Cleveland Center
10:28AM 42.2186 -80.1081 92° East 487 560 25,000  Level Cleveland Center
10:29AM 42.2131 -79.9239 92° East 484 557 25,000  Level Cleveland Center
10:31AM 42.2081 -79.7419 92° East 487 560 25,000  Level Cleveland Center
10:32AM 42.2025 -79.5606 92° East 485 558 25,000  Level Cleveland Center
10:33AM 42.1969 -79.3781 92° East 487 560 25,000  Level Cleveland Center
10:34AM 42.1900 -79.1600 92° East 489 563 25,000  Level Cleveland Center
10:35AM 42.1908 -78.9783 90° East 487 560 25,000  Level Cleveland Center
10:36AM 42.1947 -78.7897 88° East 483 556 25,000 -180 Level Cleveland Center
10:37AM 42.1972 -78.6078 89° East 486 559 24,700 -660 Descending Cleveland Center
10:38AM 42.2008 -78.4303 88° East 479 551 23,700 -1,080 Descending Cleveland Center
10:39AM 42.2025 -78.2569 89° East 470 541 22,500 -1,320 Descending Cleveland Center
10:40AM 42.2042 -78.0858 89° East 462 532 21,000 -1,620 Descending Cleveland Center
10:41AM 42.2072 -77.8878 89° East 448 516 19,200 -1,620 Descending Cleveland Center
10:42AM 42.2081 -77.7236 90° East 444 511 17,700 -1,440 Descending Cleveland Center
10:43AM 42.2092 -77.5653 89° East 427 491 16,300 -1,440 Descending Cleveland Center
10:44AM 42.2094 -77.4106 90° East 418 481 14,800 -1,500 Descending Cleveland Center
10:45AM 42.2106 -77.2553 89° East 416 479 13,300 -1,080 Descending Cleveland Center
10:46AM 42.2100 -77.1122 90° East 415 478 12,800 -1,200 Descending New York Center
10:47AM 42.2136 -76.9697 88° East 396 456 11,100 -1,740 Descending New York Center
10:48AM 42.2158 -76.8219 89° East 346 398 9,100 -1,320 Descending Cleveland Center
10:49AM 42.2214 -76.7136 86° East 311 358 8,200 -1,500 Descending Cleveland Center
10:50AM 42.2233 -76.6044 89° East 296 341 6,100 -2,040 Descending Cleveland Center
10:51AM 42.2206 -76.4728 92° East 294 338 4,000 -1,020 Descending Cleveland Center
10:52AM 42.2281 -76.3814 84° East 267 307 4,000  Level Cleveland Center
10:53AM 42.2306 -76.3300 86° East 255 293 4,000  Level New York Center
10:54AM 42.2408 -76.2439 81° East 238 274 4,000 -120 Level New York Center
10:55AM 42.2531 -76.1581 79° East 233 268 3,800 -540 Descending New York Center
10:56AM 42.2628 -76.0750 81° East 233 268 3,000 -600 Descending New York Center
10:57AM 42.2550 -76.0156 100° East 201 231 2,600 -360 Descending New York Center
10:58AM 42.2408 -75.9611 109° East 154 177 2,300 -300 Descending New York Center